Accueil
METAR-TAF:

METAR-TAF

Aéroports :

Tanna, Vanuatu

latitude: 19-27-18S, longitude: 169-13-26E, altitude: 6 m

Observation

Le bulletin a été fait il y a 1 heure et 56 minutes, à 12:00 UTC
Vent calme
Température 17°C
Humidité 94%
Pression 1016 hPa
Visibilité 10 km ou plus
Quelques nuages à une hauteur de 2000 ft

METAR: NVVW 211200Z 00000KT 9999 FEW020 17/16 Q1016 RMK NIL

Heure: 00:56 (13:56 UTC)

Prévision

Le bulletin a été fait il y a 3 heures et 56 minutes, à 10:00 UTC
Prévision valable du 21 à 12 UTC au 22 à 12 UTC
Vent 3 kt de direction variable
Visibilité 10 km ou plus
Nuages épars à une hauteur de 2000 ft

TAF: NVVW 211000Z 2112/2212 VRB03KT 9999 SCT020

Observations et prévisions météorologiques de plus de 4000 aéroports (messages METAR et TAF).

Les stations disponibles sont représentées par des disques jaunes et rouges sur la carte.

Passer la souris dessus pour voir le nom de la station.

Cliquer dessus pour voir les observations et prévisions météorologiques.

Pour changer de carte: cliquez sur les boutons verts avec une croix noire pour zoomer, sur le bouton vert avec un tiret pour effectuer un zoom arrière, ou sur les flèches vertes pour les cartes adjacentes.


METAR-TAF: